sensor_id;sensor_type;location;lat;lon;timestamp;pressure;altitude;pressure_sealevel;temperature;humidity
46846;BME280;33947;46.804;134.252;2023-12-14T00:00:07;103147.84;;;-21.17;53.88
46846;BME280;33947;46.804;134.252;2023-12-14T00:03:16;103101.88;;;-21.08;53.99
46846;BME280;33947;46.804;134.252;2023-12-14T00:06:21;103112.03;;;-19.91;52.46
46846;BME280;33947;46.804;134.252;2023-12-14T00:09:26;103138.97;;;-19.60;50.35
46846;BME280;33947;46.804;134.252;2023-12-14T00:12:30;103137.19;;;-20.35;50.21
46846;BME280;33947;46.804;134.252;2023-12-14T00:15:36;103128.44;;;-19.18;51.55
46846;BME280;33947;46.804;134.252;2023-12-14T00:18:41;103146.09;;;-18.09;50.65
46846;BME280;33947;46.804;134.252;2023-12-14T00:21:46;103109.91;;;-17.81;50.43
46846;BME280;33947;46.804;134.252;2023-12-14T00:24:50;103136.88;;;-17.28;48.64
46846;BME280;33947;46.804;134.252;2023-12-14T00:27:56;103130.25;;;-16.93;45.87
46846;BME280;33947;46.804;134.252;2023-12-14T00:31:01;103137.38;;;-17.18;47.74
46846;BME280;33947;46.804;134.252;2023-12-14T00:34:06;103135.50;;;-15.73;46.65
46846;BME280;33947;46.804;134.252;2023-12-14T00:37:11;103143.72;;;-15.53;44.66
46846;BME280;33947;46.804;134.252;2023-12-14T00:40:16;103100.53;;;-15.81;44.19
46846;BME280;33947;46.804;134.252;2023-12-14T00:43:21;103044.53;;;-15.95;42.17
46846;BME280;33947;46.804;134.252;2023-12-14T00:46:26;103148.44;;;-15.64;44.04
46846;BME280;33947;46.804;134.252;2023-12-14T00:49:30;103132.22;;;-14.56;43.10
46846;BME280;33947;46.804;134.252;2023-12-14T00:52:35;103127.81;;;-13.97;41.78
46846;BME280;33947;46.804;134.252;2023-12-14T00:55:40;103125.13;;;-13.75;40.66
46846;BME280;33947;46.804;134.252;2023-12-14T00:58:49;103119.88;;;-13.54;39.76
46846;BME280;33947;46.804;134.252;2023-12-14T01:01:56;103101.31;;;-13.67;38.97
46846;BME280;33947;46.804;134.252;2023-12-14T01:05:01;103117.53;;;-13.36;38.72
46846;BME280;33947;46.804;134.252;2023-12-14T01:08:06;103127.63;;;-13.99;38.97
46846;BME280;33947;46.804;134.252;2023-12-14T01:11:11;103073.25;;;-13.44;38.73
46846;BME280;33947;46.804;134.252;2023-12-14T01:14:16;103143.34;;;-13.42;37.28
46846;BME280;33947;46.804;134.252;2023-12-14T01:17:23;103128.44;;;-13.06;37.74
46846;BME280;33947;46.804;134.252;2023-12-14T01:20:28;103132.81;;;-13.52;37.75
46846;BME280;33947;46.804;134.252;2023-12-14T01:23:33;103139.25;;;-13.32;36.62
46846;BME280;33947;46.804;134.252;2023-12-14T01:26:38;103114.41;;;-13.33;37.45
46846;BME280;33947;46.804;134.252;2023-12-14T01:34:09;103133.09;;;-12.95;34.76
46846;BME280;33947;46.804;134.252;2023-12-14T01:37:42;103116.63;;;-13.13;34.49
46846;BME280;33947;46.804;134.252;2023-12-14T01:40:50;103026.53;;;-13.73;34.94
46846;BME280;33947;46.804;134.252;2023-12-14T01:44:13;103025.91;;;-13.24;35.78
46846;BME280;33947;46.804;134.252;2023-12-14T01:47:27;103127.78;;;-12.97;35.29
46846;BME280;33947;46.804;134.252;2023-12-14T01:50:53;103082.50;;;-13.21;35.34
46846;BME280;33947;46.804;134.252;2023-12-14T01:54:09;103127.06;;;-13.65;34.32
46846;BME280;33947;46.804;134.252;2023-12-14T01:57:14;103099.81;;;-13.88;35.59
46846;BME280;33947;46.804;134.252;2023-12-14T02:03:52;103100.25;;;-15.26;37.78
46846;BME280;33947;46.804;134.252;2023-12-14T02:07:00;103094.19;;;-13.93;37.64
46846;BME280;33947;46.804;134.252;2023-12-14T02:10:06;103101.00;;;-15.27;36.40
46846;BME280;33947;46.804;134.252;2023-12-14T02:13:11;103016.84;;;-16.14;38.02
46846;BME280;33947;46.804;134.252;2023-12-14T02:16:18;103079.66;;;-15.28;37.70
46846;BME280;33947;46.804;134.252;2023-12-14T02:19:23;103093.28;;;-15.92;37.22
46846;BME280;33947;46.804;134.252;2023-12-14T02:22:47;103074.72;;;-15.84;38.30
46846;BME280;33947;46.804;134.252;2023-12-14T02:25:54;103051.44;;;-16.02;38.27
46846;BME280;33947;46.804;134.252;2023-12-14T02:28:59;103071.06;;;-15.86;39.24
46846;BME280;33947;46.804;134.252;2023-12-14T02:32:07;103080.75;;;-15.54;38.86
46846;BME280;33947;46.804;134.252;2023-12-14T02:35:20;103095.88;;;-15.13;38.86
46846;BME280;33947;46.804;134.252;2023-12-14T02:38:26;103091.75;;;-16.19;37.57
46846;BME280;33947;46.804;134.252;2023-12-14T02:41:31;103084.22;;;-15.61;39.82
46846;BME280;33947;46.804;134.252;2023-12-14T02:44:36;103079.44;;;-15.73;37.53
46846;BME280;33947;46.804;134.252;2023-12-14T02:47:41;103044.50;;;-15.81;39.56
46846;BME280;33947;46.804;134.252;2023-12-14T02:50:45;103047.25;;;-15.87;38.65
46846;BME280;33947;46.804;134.252;2023-12-14T02:53:50;102883.28;;;-17.03;39.46
46846;BME280;33947;46.804;134.252;2023-12-14T02:56:55;103040.53;;;-15.43;39.63
46846;BME280;33947;46.804;134.252;2023-12-14T03:00:00;103059.09;;;-15.15;38.65
46846;BME280;33947;46.804;134.252;2023-12-14T03:03:05;103076.13;;;-16.15;37.58
46846;BME280;33947;46.804;134.252;2023-12-14T03:06:10;103062.16;;;-16.04;39.30
46846;BME280;33947;46.804;134.252;2023-12-14T03:09:15;103057.44;;;-15.79;39.04
46846;BME280;33947;46.804;134.252;2023-12-14T03:12:23;103058.72;;;-16.89;37.69
46846;BME280;33947;46.804;134.252;2023-12-14T03:15:28;103048.50;;;-17.03;38.68
46846;BME280;33947;46.804;134.252;2023-12-14T03:18:33;102990.53;;;-17.40;39.34
46846;BME280;33947;46.804;134.252;2023-12-14T03:21:38;103037.06;;;-16.58;39.72
46846;BME280;33947;46.804;134.252;2023-12-14T03:24:43;103030.84;;;-16.25;38.12
46846;BME280;33947;46.804;134.252;2023-12-14T03:27:47;103025.19;;;-16.15;40.03
46846;BME280;33947;46.804;134.252;2023-12-14T03:30:52;103027.72;;;-16.37;38.94
46846;BME280;33947;46.804;134.252;2023-12-14T03:33:57;103005.47;;;-16.52;39.04
46846;BME280;33947;46.804;134.252;2023-12-14T03:37:03;103015.78;;;-16.09;39.38
46846;BME280;33947;46.804;134.252;2023-12-14T03:40:09;102964.13;;;-16.15;39.58
46846;BME280;33947;46.804;134.252;2023-12-14T03:43:13;103000.25;;;-16.39;38.96
46846;BME280;33947;46.804;134.252;2023-12-14T03:46:19;102986.13;;;-16.16;39.50
46846;BME280;33947;46.804;134.252;2023-12-14T03:49:24;102995.00;;;-16.19;38.34
46846;BME280;33947;46.804;134.252;2023-12-14T03:52:29;102966.78;;;-16.57;39.31
46846;BME280;33947;46.804;134.252;2023-12-14T03:55:36;102990.38;;;-16.58;38.82
46846;BME280;33947;46.804;134.252;2023-12-14T03:58:40;102992.78;;;-16.45;38.63
46846;BME280;33947;46.804;134.252;2023-12-14T04:01:45;102995.66;;;-16.49;38.97
46846;BME280;33947;46.804;134.252;2023-12-14T04:04:50;102989.81;;;-16.63;38.63
46846;BME280;33947;46.804;134.252;2023-12-14T04:07:54;102980.22;;;-16.51;38.87
46846;BME280;33947;46.804;134.252;2023-12-14T04:11:00;102962.81;;;-16.90;38.66
46846;BME280;33947;46.804;134.252;2023-12-14T04:14:05;102977.06;;;-16.77;39.47
46846;BME280;33947;46.804;134.252;2023-12-14T04:17:13;102988.63;;;-16.37;39.35
46846;BME280;33947;46.804;134.252;2023-12-14T04:20:20;102979.53;;;-16.42;39.13
46846;BME280;33947;46.804;134.252;2023-12-14T04:23:25;102961.19;;;-16.40;39.75
46846;BME280;33947;46.804;134.252;2023-12-14T04:26:33;102984.38;;;-16.51;39.35
46846;BME280;33947;46.804;134.252;2023-12-14T04:29:38;102980.13;;;-16.73;39.26
46846;BME280;33947;46.804;134.252;2023-12-14T04:32:42;102974.50;;;-16.77;39.81
46846;BME280;33947;46.804;134.252;2023-12-14T04:35:50;102978.78;;;-16.98;39.44
46846;BME280;33947;46.804;134.252;2023-12-14T04:38:55;102959.00;;;-16.93;39.58
46846;BME280;33947;46.804;134.252;2023-12-14T04:41:59;102973.47;;;-16.65;40.17
46846;BME280;33947;46.804;134.252;2023-12-14T04:45:04;102969.44;;;-16.70;39.58
46846;BME280;33947;46.804;134.252;2023-12-14T04:48:09;102935.88;;;-16.60;40.70
46846;BME280;33947;46.804;134.252;2023-12-14T04:51:14;102969.56;;;-16.90;39.20
46846;BME280;33947;46.804;134.252;2023-12-14T04:54:21;102900.69;;;-17.13;39.78
46846;BME280;33947;46.804;134.252;2023-12-14T04:57:26;102959.69;;;-16.52;40.28
46846;BME280;33947;46.804;134.252;2023-12-14T05:00:31;102962.47;;;-16.85;40.04
46846;BME280;33947;46.804;134.252;2023-12-14T05:03:36;102954.47;;;-16.89;40.33
46846;BME280;33947;46.804;134.252;2023-12-14T05:06:43;102958.63;;;-16.96;40.26
46846;BME280;33947;46.804;134.252;2023-12-14T05:09:48;102927.06;;;-16.98;40.62
46846;BME280;33947;46.804;134.252;2023-12-14T05:12:55;102949.28;;;-16.68;40.08
46846;BME280;33947;46.804;134.252;2023-12-14T05:15:59;102896.19;;;-17.01;39.48
46846;BME280;33947;46.804;134.252;2023-12-14T05:19:04;102940.41;;;-16.58;40.04
46846;BME280;33947;46.804;134.252;2023-12-14T05:22:11;102931.53;;;-17.10;39.83
46846;BME280;33947;46.804;134.252;2023-12-14T05:25:17;102954.28;;;-16.90;39.41
46846;BME280;33947;46.804;134.252;2023-12-14T05:28:22;102922.41;;;-17.23;40.13
46846;BME280;33947;46.804;134.252;2023-12-14T05:31:27;102957.31;;;-16.58;40.03
46846;BME280;33947;46.804;134.252;2023-12-14T05:34:32;102955.75;;;-17.27;40.16
46846;BME280;33947;46.804;134.252;2023-12-14T05:37:40;102933.09;;;-17.25;40.46
46846;BME280;33947;46.804;134.252;2023-12-14T05:40:46;102953.88;;;-17.08;40.51
46846;BME280;33947;46.804;134.252;2023-12-14T05:43:51;102947.16;;;-17.07;39.95
46846;BME280;33947;46.804;134.252;2023-12-14T05:46:56;102960.06;;;-17.06;39.63
46846;BME280;33947;46.804;134.252;2023-12-14T05:50:01;102955.59;;;-17.28;40.57
46846;BME280;33947;46.804;134.252;2023-12-14T05:53:11;102951.22;;;-17.29;40.71
46846;BME280;33947;46.804;134.252;2023-12-14T05:56:21;102937.38;;;-17.66;39.91
46846;BME280;33947;46.804;134.252;2023-12-14T05:59:38;102949.00;;;-17.88;40.43
46846;BME280;33947;46.804;134.252;2023-12-14T06:02:43;102950.91;;;-17.53;40.98
46846;BME280;33947;46.804;134.252;2023-12-14T06:05:48;102937.88;;;-17.76;40.59
46846;BME280;33947;46.804;134.252;2023-12-14T06:08:56;102941.50;;;-17.47;41.25
46846;BME280;33947;46.804;134.252;2023-12-14T06:12:04;102890.50;;;-17.83;40.45
46846;BME280;33947;46.804;134.252;2023-12-14T06:15:09;102946.81;;;-17.65;40.25
46846;BME280;33947;46.804;134.252;2023-12-14T06:18:14;102837.72;;;-18.40;40.70
46846;BME280;33947;46.804;134.252;2023-12-14T06:21:28;102878.03;;;-18.29;40.75
46846;BME280;33947;46.804;134.252;2023-12-14T06:24:40;102873.88;;;-18.49;40.80
46846;BME280;33947;46.804;134.252;2023-12-14T06:27:48;102956.88;;;-18.27;41.50
46846;BME280;33947;46.804;134.252;2023-12-14T06:30:56;102826.28;;;-19.38;41.41
46846;BME280;33947;46.804;134.252;2023-12-14T06:34:01;102922.19;;;-18.54;41.12
46846;BME280;33947;46.804;134.252;2023-12-14T06:37:13;102930.81;;;-18.59;41.77
46846;BME280;33947;46.804;134.252;2023-12-14T06:40:21;102973.50;;;-18.50;41.74
46846;BME280;33947;46.804;134.252;2023-12-14T06:43:26;102968.75;;;-18.54;42.54
46846;BME280;33947;46.804;134.252;2023-12-14T06:46:30;102972.41;;;-18.65;42.44
46846;BME280;33947;46.804;134.252;2023-12-14T06:49:40;102690.81;;;-20.33;42.90
46846;BME280;33947;46.804;134.252;2023-12-14T06:52:57;102981.00;;;-18.90;42.69
46846;BME280;33947;46.804;134.252;2023-12-14T06:56:03;102931.00;;;-19.37;43.16
46846;BME280;33947;46.804;134.252;2023-12-14T06:59:08;102985.09;;;-18.98;44.10
46846;BME280;33947;46.804;134.252;2023-12-14T07:02:13;102977.09;;;-19.14;43.65
46846;BME280;33947;46.804;134.252;2023-12-14T07:05:18;102967.88;;;-19.39;43.65
46846;BME280;33947;46.804;134.252;2023-12-14T07:08:23;102983.16;;;-19.45;44.10
46846;BME280;33947;46.804;134.252;2023-12-14T07:11:28;102984.91;;;-19.38;44.10
46846;BME280;33947;46.804;134.252;2023-12-14T07:14:33;102982.13;;;-19.53;44.17
46846;BME280;33947;46.804;134.252;2023-12-14T07:17:37;102937.66;;;-19.89;44.64
46846;BME280;33947;46.804;134.252;2023-12-14T07:20:44;102981.19;;;-19.79;44.79
46846;BME280;33947;46.804;134.252;2023-12-14T07:23:49;102956.91;;;-19.71;44.64
46846;BME280;33947;46.804;134.252;2023-12-14T07:26:54;102979.88;;;-19.83;44.81
46846;BME280;33947;46.804;134.252;2023-12-14T07:29:59;102974.47;;;-20.04;45.55
46846;BME280;33947;46.804;134.252;2023-12-14T07:33:05;102969.19;;;-20.19;45.76
46846;BME280;33947;46.804;134.252;2023-12-14T07:36:11;102970.59;;;-20.21;45.57
46846;BME280;33947;46.804;134.252;2023-12-14T07:39:16;102853.34;;;-20.79;45.82
46846;BME280;33947;46.804;134.252;2023-12-14T07:42:21;102959.97;;;-20.18;46.46
46846;BME280;33947;46.804;134.252;2023-12-14T07:45:26;102966.09;;;-20.29;45.87
46846;BME280;33947;46.804;134.252;2023-12-14T07:48:31;102955.78;;;-20.31;45.65
46846;BME280;33947;46.804;134.252;2023-12-14T07:51:35;102960.03;;;-20.37;45.91
46846;BME280;33947;46.804;134.252;2023-12-14T07:54:40;102922.63;;;-20.58;45.29
46846;BME280;33947;46.804;134.252;2023-12-14T07:57:47;102930.53;;;-20.49;45.31
46846;BME280;33947;46.804;134.252;2023-12-14T08:00:54;102877.81;;;-20.91;45.43
46846;BME280;33947;46.804;134.252;2023-12-14T08:04:01;102946.97;;;-20.40;45.44
46846;BME280;33947;46.804;134.252;2023-12-14T08:07:06;102943.09;;;-20.44;45.67
46846;BME280;33947;46.804;134.252;2023-12-14T08:10:12;102945.38;;;-20.58;45.72
46846;BME280;33947;46.804;134.252;2023-12-14T08:13:16;102948.09;;;-20.57;46.22
46846;BME280;33947;46.804;134.252;2023-12-14T08:16:22;102960.25;;;-20.54;46.52
46846;BME280;33947;46.804;134.252;2023-12-14T08:19:27;102945.44;;;-20.64;47.07
46846;BME280;33947;46.804;134.252;2023-12-14T08:22:32;102947.81;;;-20.71;46.51
46846;BME280;33947;46.804;134.252;2023-12-14T08:25:39;102952.44;;;-20.56;47.07
46846;BME280;33947;46.804;134.252;2023-12-14T08:28:53;102941.38;;;-20.69;46.93
46846;BME280;33947;46.804;134.252;2023-12-14T08:31:58;102956.94;;;-20.66;46.50
46846;BME280;33947;46.804;134.252;2023-12-14T08:35:04;102951.25;;;-20.71;46.50
46846;BME280;33947;46.804;134.252;2023-12-14T08:38:10;102968.00;;;-20.84;46.82
46846;BME280;33947;46.804;134.252;2023-12-14T08:41:15;102876.50;;;-21.32;47.21
46846;BME280;33947;46.804;134.252;2023-12-14T08:44:20;102895.56;;;-21.15;46.62
46846;BME280;33947;46.804;134.252;2023-12-14T08:47:26;102968.41;;;-21.00;46.99
46846;BME280;33947;46.804;134.252;2023-12-14T08:50:34;102919.13;;;-21.28;46.99
46846;BME280;33947;46.804;134.252;2023-12-14T08:53:38;102952.56;;;-20.99;46.91
46846;BME280;33947;46.804;134.252;2023-12-14T08:56:43;102917.59;;;-21.33;46.99
46846;BME280;33947;46.804;134.252;2023-12-14T08:59:52;102955.84;;;-21.05;46.41
46846;BME280;33947;46.804;134.252;2023-12-14T09:02:57;102910.50;;;-21.35;46.85
46846;BME280;33947;46.804;134.252;2023-12-14T09:06:02;102965.19;;;-20.99;46.67
46846;BME280;33947;46.804;134.252;2023-12-14T09:09:09;102961.53;;;-21.01;46.27
46846;BME280;33947;46.804;134.252;2023-12-14T09:12:14;102965.75;;;-20.88;47.20
46846;BME280;33947;46.804;134.252;2023-12-14T09:15:18;102957.25;;;-20.89;47.59
46846;BME280;33947;46.804;134.252;2023-12-14T09:18:24;102960.84;;;-20.81;47.28
46846;BME280;33947;46.804;134.252;2023-12-14T09:21:29;102967.72;;;-20.99;47.12
46846;BME280;33947;46.804;134.252;2023-12-14T09:24:46;102909.31;;;-21.32;47.00
46846;BME280;33947;46.804;134.252;2023-12-14T09:27:51;102967.13;;;-21.09;47.60
46846;BME280;33947;46.804;134.252;2023-12-14T09:30:56;102905.03;;;-21.63;47.34
46846;BME280;33947;46.804;134.252;2023-12-14T09:34:01;102979.47;;;-21.05;46.74
46846;BME280;33947;46.804;134.252;2023-12-14T09:37:06;102977.78;;;-21.17;47.21
46846;BME280;33947;46.804;134.252;2023-12-14T09:40:12;102981.75;;;-21.25;48.11
46846;BME280;33947;46.804;134.252;2023-12-14T09:43:16;102983.19;;;-21.08;48.07
46846;BME280;33947;46.804;134.252;2023-12-14T09:46:23;102987.31;;;-21.09;47.67
46846;BME280;33947;46.804;134.252;2023-12-14T09:49:30;102986.19;;;-21.11;47.58
46846;BME280;33947;46.804;134.252;2023-12-14T09:52:34;102979.84;;;-20.96;47.36
46846;BME280;33947;46.804;134.252;2023-12-14T09:55:39;102920.75;;;-21.52;46.74
46846;BME280;33947;46.804;134.252;2023-12-14T09:58:44;102981.03;;;-21.24;47.86
46846;BME280;33947;46.804;134.252;2023-12-14T10:01:49;102975.09;;;-21.24;48.26
46846;BME280;33947;46.804;134.252;2023-12-14T10:04:54;102968.34;;;-21.37;47.95
46846;BME280;33947;46.804;134.252;2023-12-14T10:07:59;102984.78;;;-21.28;48.79
46846;BME280;33947;46.804;134.252;2023-12-14T10:11:15;102850.91;;;-21.84;48.24
46846;BME280;33947;46.804;134.252;2023-12-14T10:14:22;102975.66;;;-21.14;48.27
46846;BME280;33947;46.804;134.252;2023-12-14T10:17:28;102921.09;;;-21.38;48.13
46846;BME280;33947;46.804;134.252;2023-12-14T10:20:37;102973.09;;;-21.08;47.42
46846;BME280;33947;46.804;134.252;2023-12-14T10:23:45;102978.97;;;-21.21;48.34
46846;BME280;33947;46.804;134.252;2023-12-14T10:26:51;102948.41;;;-21.41;48.02
46846;BME280;33947;46.804;134.252;2023-12-14T10:29:56;102974.09;;;-21.38;48.07
46846;BME280;33947;46.804;134.252;2023-12-14T10:33:00;102973.44;;;-21.43;49.32
46846;BME280;33947;46.804;134.252;2023-12-14T10:36:08;102975.38;;;-21.77;48.98
46846;BME280;33947;46.804;134.252;2023-12-14T10:39:14;102941.13;;;-21.70;48.94
46846;BME280;33947;46.804;134.252;2023-12-14T10:42:23;102963.19;;;-21.74;48.53
46846;BME280;33947;46.804;134.252;2023-12-14T10:45:33;102919.78;;;-22.26;48.82
46846;BME280;33947;46.804;134.252;2023-12-14T10:48:39;102984.53;;;-22.08;49.50
46846;BME280;33947;46.804;134.252;2023-12-14T10:51:48;102973.97;;;-22.05;49.51
46846;BME280;33947;46.804;134.252;2023-12-14T10:54:58;102966.13;;;-22.31;49.35
46846;BME280;33947;46.804;134.252;2023-12-14T10:58:07;102969.59;;;-22.36;49.60
46846;BME280;33947;46.804;134.252;2023-12-14T11:01:16;102980.19;;;-22.09;49.45
46846;BME280;33947;46.804;134.252;2023-12-14T11:04:23;102967.78;;;-22.43;49.43
46846;BME280;33947;46.804;134.252;2023-12-14T11:07:47;102971.34;;;-22.24;48.73
46846;BME280;33947;46.804;134.252;2023-12-14T11:10:54;102975.09;;;-22.39;49.38
46846;BME280;33947;46.804;134.252;2023-12-14T11:14:08;102983.13;;;-22.83;50.14
46846;BME280;33947;46.804;134.252;2023-12-14T11:17:26;102971.28;;;-23.12;51.25
46846;BME280;33947;46.804;134.252;2023-12-14T11:20:54;102905.13;;;-23.58;51.18
46846;BME280;33947;46.804;134.252;2023-12-14T11:24:01;102972.19;;;-23.01;51.28
46846;BME280;33947;46.804;134.252;2023-12-14T11:27:06;102915.84;;;-22.84;49.66
46846;BME280;33947;46.804;134.252;2023-12-14T11:30:12;102962.13;;;-22.48;48.90
46846;BME280;33947;46.804;134.252;2023-12-14T11:33:17;102944.41;;;-22.72;48.07
46846;BME280;33947;46.804;134.252;2023-12-14T11:36:23;102957.50;;;-22.92;47.84
46846;BME280;33947;46.804;134.252;2023-12-14T11:39:31;102970.16;;;-23.15;49.87
46846;BME280;33947;46.804;134.252;2023-12-14T11:42:37;102945.91;;;-23.20;49.53
46846;BME280;33947;46.804;134.252;2023-12-14T11:45:42;102918.31;;;-23.37;49.85
46846;BME280;33947;46.804;134.252;2023-12-14T11:48:47;102904.25;;;-23.82;50.68
46846;BME280;33947;46.804;134.252;2023-12-14T11:51:56;102908.88;;;-24.02;52.02
46846;BME280;33947;46.804;134.252;2023-12-14T11:55:01;102945.81;;;-23.72;52.18
46846;BME280;33947;46.804;134.252;2023-12-14T11:58:06;102953.13;;;-23.68;52.13
46846;BME280;33947;46.804;134.252;2023-12-14T12:01:16;102949.66;;;-23.29;50.64
46846;BME280;33947;46.804;134.252;2023-12-14T12:04:21;102941.56;;;-23.21;49.89
46846;BME280;33947;46.804;134.252;2023-12-14T12:07:25;102951.84;;;-23.02;48.77
46846;BME280;33947;46.804;134.252;2023-12-14T12:10:30;102964.09;;;-23.45;49.76
46846;BME280;33947;46.804;134.252;2023-12-14T12:13:35;102963.44;;;-23.84;51.19
46846;BME280;33947;46.804;134.252;2023-12-14T12:16:40;102970.06;;;-23.79;51.34
46846;BME280;33947;46.804;134.252;2023-12-14T12:19:47;102960.47;;;-24.15;52.79
46846;BME280;33947;46.804;134.252;2023-12-14T12:22:52;102954.50;;;-23.88;52.44
46846;BME280;33947;46.804;134.252;2023-12-14T12:25:56;102956.34;;;-23.69;51.67
46846;BME280;33947;46.804;134.252;2023-12-14T12:29:04;102954.06;;;-23.79;51.41
46846;BME280;33947;46.804;134.252;2023-12-14T12:32:13;102946.31;;;-23.81;51.35
46846;BME280;33947;46.804;134.252;2023-12-14T12:35:19;102941.94;;;-24.27;52.03
46846;BME280;33947;46.804;134.252;2023-12-14T12:38:24;102953.53;;;-24.51;53.15
46846;BME280;33947;46.804;134.252;2023-12-14T12:41:28;102944.25;;;-24.23;53.20
46846;BME280;33947;46.804;134.252;2023-12-14T12:44:33;102912.94;;;-24.25;52.94
46846;BME280;33947;46.804;134.252;2023-12-14T12:47:38;102912.22;;;-23.90;51.50
46846;BME280;33947;46.804;134.252;2023-12-14T12:50:44;102922.75;;;-23.93;50.86
46846;BME280;33947;46.804;134.252;2023-12-14T12:53:49;102890.34;;;-24.25;50.21
46846;BME280;33947;46.804;134.252;2023-12-14T12:56:58;102912.97;;;-24.20;50.52
46846;BME280;33947;46.804;134.252;2023-12-14T13:00:04;102860.63;;;-24.62;51.13
46846;BME280;33947;46.804;134.252;2023-12-14T13:03:14;102887.81;;;-23.97;49.95
46846;BME280;33947;46.804;134.252;2023-12-14T13:06:19;102883.91;;;-23.89;50.77
46846;BME280;33947;46.804;134.252;2023-12-14T13:09:24;102880.53;;;-24.41;51.46
46846;BME280;33947;46.804;134.252;2023-12-14T13:12:30;102814.50;;;-25.02;52.70
46846;BME280;33947;46.804;134.252;2023-12-14T13:15:37;102851.19;;;-25.14;53.33
46846;BME280;33947;46.804;134.252;2023-12-14T13:18:43;102854.91;;;-24.67;53.04
46846;BME280;33947;46.804;134.252;2023-12-14T13:21:50;102866.34;;;-24.57;53.07
46846;BME280;33947;46.804;134.252;2023-12-14T13:24:56;102853.09;;;-24.68;53.86
46846;BME280;33947;46.804;134.252;2023-12-14T13:28:01;102850.81;;;-24.89;54.93
46846;BME280;33947;46.804;134.252;2023-12-14T13:31:06;102845.16;;;-24.77;54.85
46846;BME280;33947;46.804;134.252;2023-12-14T13:34:12;102849.00;;;-24.22;54.06
46846;BME280;33947;46.804;134.252;2023-12-14T13:37:17;102820.69;;;-24.55;53.54
46846;BME280;33947;46.804;134.252;2023-12-14T13:40:22;102771.41;;;-25.06;53.91
46846;BME280;33947;46.804;134.252;2023-12-14T13:43:27;102846.97;;;-24.41;53.78
46846;BME280;33947;46.804;134.252;2023-12-14T13:46:32;102838.28;;;-24.66;54.14
46846;BME280;33947;46.804;134.252;2023-12-14T13:49:37;102761.84;;;-25.02;54.49
46846;BME280;33947;46.804;134.252;2023-12-14T13:52:43;102820.50;;;-24.39;54.08
46846;BME280;33947;46.804;134.252;2023-12-14T13:55:48;102828.94;;;-24.33;53.97
46846;BME280;33947;46.804;134.252;2023-12-14T13:58:56;102803.56;;;-24.52;53.84
46846;BME280;33947;46.804;134.252;2023-12-14T14:02:04;102818.19;;;-24.32;53.45
46846;BME280;33947;46.804;134.252;2023-12-14T14:05:12;102802.91;;;-24.39;53.96
46846;BME280;33947;46.804;134.252;2023-12-14T14:08:17;102722.16;;;-24.82;53.86
46846;BME280;33947;46.804;134.252;2023-12-14T14:11:22;102799.94;;;-24.42;53.51
46846;BME280;33947;46.804;134.252;2023-12-14T14:14:27;102808.53;;;-23.95;52.25
46846;BME280;33947;46.804;134.252;2023-12-14T14:17:33;102781.41;;;-24.32;52.52
46846;BME280;33947;46.804;134.252;2023-12-14T14:20:38;102785.97;;;-24.12;51.96
46846;BME280;33947;46.804;134.252;2023-12-14T14:23:43;102804.91;;;-24.08;51.53
46846;BME280;33947;46.804;134.252;2023-12-14T14:26:48;102781.41;;;-24.14;50.86
46846;BME280;33947;46.804;134.252;2023-12-14T14:29:53;102682.84;;;-24.59;50.35
46846;BME280;33947;46.804;134.252;2023-12-14T14:33:00;102724.97;;;-24.05;49.95
46846;BME280;33947;46.804;134.252;2023-12-14T14:36:06;102733.00;;;-24.25;50.40
46846;BME280;33947;46.804;134.252;2023-12-14T14:39:12;102784.88;;;-24.31;50.32
46846;BME280;33947;46.804;134.252;2023-12-14T14:42:16;102791.22;;;-24.10;50.22
46846;BME280;33947;46.804;134.252;2023-12-14T14:45:21;102775.44;;;-24.09;50.50
46846;BME280;33947;46.804;134.252;2023-12-14T14:48:26;102761.41;;;-24.77;50.84
46846;BME280;33947;46.804;134.252;2023-12-14T14:51:31;102739.72;;;-24.88;51.35
46846;BME280;33947;46.804;134.252;2023-12-14T14:54:36;102777.56;;;-24.52;51.74
46846;BME280;33947;46.804;134.252;2023-12-14T14:57:41;102743.09;;;-24.59;50.40
46846;BME280;33947;46.804;134.252;2023-12-14T15:00:45;102695.69;;;-24.97;50.45
46846;BME280;33947;46.804;134.252;2023-12-14T15:03:51;102792.88;;;-24.79;51.35
46846;BME280;33947;46.804;134.252;2023-12-14T15:06:56;102790.78;;;-25.04;51.20
46846;BME280;33947;46.804;134.252;2023-12-14T15:10:01;102806.09;;;-24.80;51.59
46846;BME280;33947;46.804;134.252;2023-12-14T15:13:07;102777.34;;;-24.88;51.25
46846;BME280;33947;46.804;134.252;2023-12-14T15:16:12;102806.88;;;-25.48;52.09
46846;BME280;33947;46.804;134.252;2023-12-14T15:19:20;102776.91;;;-25.75;53.86
46846;BME280;33947;46.804;134.252;2023-12-14T15:22:25;102765.16;;;-26.09;54.75
46846;BME280;33947;46.804;134.252;2023-12-14T15:25:30;102740.66;;;-26.32;55.54
46846;BME280;33947;46.804;134.252;2023-12-14T15:28:35;102773.22;;;-25.83;54.80
46846;BME280;33947;46.804;134.252;2023-12-14T15:31:41;102816.72;;;-25.27;54.57
46846;BME280;33947;46.804;134.252;2023-12-14T15:34:46;102827.50;;;-25.11;53.56
46846;BME280;33947;46.804;134.252;2023-12-14T15:37:51;102834.34;;;-25.04;52.94
46846;BME280;33947;46.804;134.252;2023-12-14T15:40:56;102836.47;;;-24.79;51.27
46846;BME280;33947;46.804;134.252;2023-12-14T15:44:00;102816.06;;;-25.75;52.02